Time;durP1;ratioP1;P1;durP2;ratioP2;P2;SDS_P1;SDS_P2;PMS_P1;PMS_P2;Temp;Humidity;BMP_temperature;BMP_pressure;BME280_temperature;BME280_humidity;BME280_pressure;Samples;Min_cycle;Max_cycle;Signal;HPM_P1;HPM_P2
2021/06/28 00:00:00;;;;;;;;;;;;;;;22.50;78.25;100825.03;5094852;28;1772;-43
2021/06/28 00:02:31;;;;;;;;;;;;;;;22.50;78.14;100811.56;5094719;28;1897;-44
2021/06/28 00:04:57;;;;;;;;;;;;;;;22.58;78.09;100827.78;5094425;28;1826;-44
2021/06/28 00:07:24;;;;;;;;;;;;;;;22.60;78.32;100825.78;5094274;28;1815;-44
2021/06/28 00:09:50;;;;;;;;;;;;;;;22.62;77.92;100823.78;5094864;28;1861;-44
2021/06/28 00:12:18;;;;;;;;;;;;;;;22.59;78.01;100818.69;5094696;28;1831;-44
2021/06/28 00:14:44;;;;;;;;;;;;;;;22.66;77.88;100818.94;5094435;28;1849;-44
2021/06/28 00:17:11;;;;;;;;;;;;;;;22.55;77.79;100809.22;5094463;28;1614;-44
2021/06/28 00:19:37;;;;;;;;;;;;;;;22.45;77.68;100830.06;5094166;28;1679;-44
2021/06/28 00:22:04;;;;;;;;;;;;;;;22.41;77.84;100832.19;5094715;28;2020;-44
2021/06/28 00:24:30;;;;;;;;;;;;;;;22.35;77.89;100810.44;5094346;28;2027;-44
2021/06/28 00:26:57;;;;;;;;;;;;;;;22.45;78.28;100813.88;5093946;28;1754;-44
2021/06/28 00:29:25;;;;;;;;;;;;;;;22.49;77.40;100807.16;5093876;28;1699;-44
2021/06/28 00:31:55;;;;;;;;;;;;;;;22.49;77.55;100809.88;5093785;28;1595;-44
2021/06/28 00:34:21;;;;;;;;;;;;;;;22.50;77.27;100808.88;5094138;28;1657;-44
2021/06/28 00:36:48;;;;;;;;;;;;;;;22.52;76.93;100825.72;5094567;28;1028;-44
2021/06/28 00:39:14;;;;;;;;;;;;;;;22.49;76.98;100809.03;5093886;28;1982;-44
2021/06/28 00:41:40;;;;;;;;;;;;;;;22.54;76.86;100815.63;5094096;28;1905;-44
2021/06/28 00:44:07;;;;;;;;;;;;;;;22.60;76.77;100815.00;5094447;28;1080;-44
2021/06/28 00:46:35;;;;;;;;;;;;;;;22.54;76.69;100810.25;5093881;28;1994;-44
2021/06/28 00:49:01;;;;;;;;;;;;;;;22.39;76.90;100814.50;5093597;28;2281;-44
2021/06/28 00:51:28;;;;;;;;;;;;;;;22.36;76.82;100825.59;5093834;28;1994;-44
2021/06/28 00:53:54;;;;;;;;;;;;;;;22.36;76.74;100812.97;5093815;28;1773;-44
2021/06/28 00:56:21;;;;;;;;;;;;;;;22.31;76.73;100820.69;5093990;28;1155;-44
2021/06/28 00:58:48;;;;;;;;;;;;;;;;;;5093641;28;2017;-44
2021/06/28 01:01:15;;;;;;;;;;;;;;;22.46;76.93;100818.25;5093566;28;1984;-44
2021/06/28 01:03:43;;;;;;;;;;;;;;;22.46;76.67;100820.94;5093369;28;1785;-44
2021/06/28 01:06:11;;;;;;;;;;;;;;;22.45;76.73;100821.97;5091481;28;1873;-44
2021/06/28 01:08:38;;;;;;;;;;;;;;;22.38;76.75;100819.06;5093958;28;1067;-44
2021/06/28 01:11:04;;;;;;;;;;;;;;;22.33;76.75;100825.91;5093641;28;1953;-44
2021/06/28 01:13:32;;;;;;;;;;;;;;;22.40;76.63;100826.97;5093633;28;2057;-44
2021/06/28 01:15:58;;;;;;;;;;;;;;;22.40;76.53;100829.66;5093089;28;1812;-44
2021/06/28 01:18:25;;;;;;;;;;;;;;;22.41;76.56;100815.19;5093454;28;1629;-44
2021/06/28 01:20:53;;;;;;;;;;;;;;;22.47;76.39;100835.28;5093006;28;1710;-44
2021/06/28 01:23:21;;;;;;;;;;;;;;;22.41;76.08;100817.91;5093277;28;1971;-44
2021/06/28 01:25:48;;;;;;;;;;;;;;;22.40;76.11;100818.88;5093439;28;1087;-45
2021/06/28 01:28:15;;;;;;;;;;;;;;;22.44;75.76;100823.81;5093449;28;993;-43
2021/06/28 01:30:42;;;;;;;;;;;;;;;22.48;75.73;100831.56;5093261;28;1926;-44
2021/06/28 01:33:09;;;;;;;;;;;;;;;22.44;75.82;100820.25;5093280;28;1951;-44
2021/06/28 01:35:36;;;;;;;;;;;;;;;22.43;75.61;100821.28;5093235;28;1756;-44
2021/06/28 01:38:03;;;;;;;;;;;;;;;22.44;75.85;100823.81;5093443;28;1950;-44
2021/06/28 01:40:31;;;;;;;;;;;;;;;22.43;75.72;100835.59;5093189;28;1804;-44
2021/06/28 01:42:57;;;;;;;;;;;;;;;22.38;76.03;100837.06;5092738;28;1886;-44
2021/06/28 01:45:24;;;;;;;;;;;;;;;22.43;75.87;100826.66;5092955;28;1941;-44
2021/06/28 01:47:53;;;;;;;;;;;;;;;22.46;75.65;100847.91;5093119;28;1912;-45
2021/06/28 01:50:20;;;;;;;;;;;;;;;22.30;76.10;100843.22;5092893;28;1904;-44
2021/06/28 01:52:47;;;;;;;;;;;;;;;22.39;76.24;100854.94;5092858;28;1760;-45
2021/06/28 01:55:15;;;;;;;;;;;;;;;22.36;75.60;100849.84;5093561;28;1023;-44
2021/06/28 01:57:43;;;;;;;;;;;;;;;22.31;75.91;100850.31;5095611;28;1743;-44
2021/06/28 02:03:03;;;;;;;;;;;;;;;22.19;75.48;100852.38;5106004;22;1911;-44
2021/06/28 02:05:30;;;;;;;;;;;;;;;22.24;75.76;100851.91;5069079;28;1747;-43
2021/06/28 02:07:57;;;;;;;;;;;;;;;22.22;75.94;100849.38;5065782;28;1985;-43
2021/06/28 02:10:24;;;;;;;;;;;;;;;22.24;76.36;100850.09;5067614;28;1762;-44
2021/06/28 02:12:51;;;;;;;;;;;;;;;22.27;76.42;100857.00;5066205;28;1867;-44
2021/06/28 02:15:18;;;;;;;;;;;;;;;22.20;75.57;100851.38;5068273;28;1642;-43
2021/06/28 02:17:45;;;;;;;;;;;;;;;22.24;75.34;100846.53;5067871;28;1858;-43
2021/06/28 02:20:12;;;;;;;;;;;;;;;22.29;76.43;100849.63;5067198;28;1626;-44
2021/06/28 02:22:39;;;;;;;;;;;;;;;22.22;75.69;100853.88;5056423;28;1988;-43
2021/06/28 02:25:06;;;;;;;;;;;;;;;22.27;76.16;100864.25;5056276;28;1837;-44
2021/06/28 02:27:32;;;;;;;;;;;;;;;22.32;76.36;100851.16;5060188;28;1506;-43
2021/06/28 02:30:00;;;;;;;;;;;;;;;22.35;76.18;100853.56;5066108;28;1612;-43
2021/06/28 02:32:27;;;;;;;;;;;;;;;22.34;75.79;100858.09;5063396;28;1600;-44
2021/06/28 02:34:53;;;;;;;;;;;;;;;22.27;76.09;100850.78;5065477;28;1519;-43
2021/06/28 02:37:20;;;;;;;;;;;;;;;22.24;75.96;100858.19;5065222;28;1259;-43
2021/06/28 02:39:46;;;;;;;;;;;;;;;22.26;75.92;100860.69;5063746;28;1510;-44
2021/06/28 02:42:13;;;;;;;;;;;;;;;22.21;75.96;100866.53;5065817;28;1910;-44
2021/06/28 02:44:39;;;;;;;;;;;;;;;22.22;75.23;100859.28;5064365;28;1603;-43
2021/06/28 02:47:07;;;;;;;;;;;;;;;22.23;75.86;100864.53;5064528;28;1544;-43
2021/06/28 02:49:34;;;;;;;;;;;;;;;22.22;75.45;100867.34;5065602;28;1436;-43
2021/06/28 02:52:00;;;;;;;;;;;;;;;22.20;75.56;100872.94;5068999;28;1499;-43
2021/06/28 02:54:27;;;;;;;;;;;;;;;22.24;76.16;100871.66;5060608;28;1545;-43
2021/06/28 02:56:53;;;;;;;;;;;;;;;22.34;76.03;100878.78;5065149;28;1477;-43
2021/06/28 02:59:20;;;;;;;;;;;;;;;22.38;75.21;100874.78;5066698;28;1359;-44
2021/06/28 03:01:47;;;;;;;;;;;;;;;22.37;75.19;100897.34;5069143;28;1965;-44
2021/06/28 03:04:14;;;;;;;;;;;;;;;22.26;74.98;100878.72;5063036;28;1497;-43
2021/06/28 03:06:41;;;;;;;;;;;;;;;22.30;75.36;100885.47;5057634;28;1384;-43
2021/06/28 03:09:07;;;;;;;;;;;;;;;22.28;75.10;100895.56;5056889;28;1745;-43
2021/06/28 03:11:34;;;;;;;;;;;;;;;22.27;75.13;100901.97;5067212;28;1777;-43
2021/06/28 03:14:00;;;;;;;;;;;;;;;22.20;75.30;100894.47;5066678;28;1759;-43
2021/06/28 03:16:27;;;;;;;;;;;;;;;22.19;75.27;100903.53;5065383;28;1639;-43
2021/06/28 03:18:53;;;;;;;;;;;;;;;22.03;75.67;100906.06;5055871;28;997;-43
2021/06/28 03:21:21;;;;;;;;;;;;;;;22.11;75.63;100911.53;5054933;28;1726;-43
2021/06/28 03:23:48;;;;;;;;;;;;;;;22.16;75.68;100908.38;5054860;28;1910;-43
2021/06/28 03:26:15;;;;;;;;;;;;;;;22.19;75.08;100902.69;5055081;28;1513;-44
2021/06/28 03:28:41;;;;;;;;;;;;;;;22.21;75.93;100904.22;5064752;28;1685;-44
2021/06/28 03:31:09;;;;;;;;;;;;;;;22.31;75.22;100903.34;5058744;28;1084;-43
2021/06/28 03:33:35;;;;;;;;;;;;;;;22.34;75.13;100900.34;5061487;28;1998;-43
2021/06/28 03:36:02;;;;;;;;;;;;;;;22.28;75.03;100906.34;5068757;28;1956;-44
2021/06/28 03:38:30;;;;;;;;;;;;;;;22.16;75.54;100897.59;5060878;28;1793;-43
2021/06/28 03:40:56;;;;;;;;;;;;;;;22.17;75.51;100902.00;5065917;28;1823;-43
2021/06/28 03:43:23;;;;;;;;;;;;;;;22.26;74.92;100902.97;5064496;28;1905;-44
2021/06/28 03:45:49;;;;;;;;;;;;;;;22.32;74.77;100902.34;5061043;28;1595;-44
2021/06/28 03:48:16;;;;;;;;;;;;;;;22.30;75.09;100899.78;5054961;28;1166;-42
2021/06/28 03:50:43;;;;;;;;;;;;;;;22.30;75.12;100907.88;5054615;28;1767;-43
2021/06/28 03:53:10;;;;;;;;;;;;;;;22.30;75.29;100912.41;5054754;28;1309;-43
2021/06/28 03:55:38;;;;;;;;;;;;;;;22.44;74.57;100898.41;5054405;28;1949;-43
2021/06/28 03:58:04;;;;;;;;;;;;;;;22.47;74.61;100894.56;5056198;28;1293;-43
2021/06/28 04:00:31;;;;;;;;;;;;;;;22.51;74.65;100912.97;5063941;28;1256;-43
2021/06/28 04:02:59;;;;;;;;;;;;;;;22.50;74.46;100908.59;5064547;28;1906;-43
2021/06/28 04:05:25;;;;;;;;;;;;;;;22.43;74.54;100916.44;5063600;28;1366;-43
2021/06/28 04:07:53;;;;;;;;;;;;;;;22.48;74.58;100918.66;5064698;28;1374;-43
2021/06/28 04:10:20;;;;;;;;;;;;;;;22.57;74.49;100920.41;5070422;28;1635;-43
2021/06/28 04:12:49;;;;;;;;;;;;;;;22.63;74.23;100911.72;5074652;28;998;-43
2021/06/28 04:15:17;;;;;;;;;;;;;;;22.60;74.32;100925.50;5068404;28;1134;-43
2021/06/28 04:17:45;;;;;;;;;;;;;;;22.63;74.26;100932.44;5062118;28;1262;-43
2021/06/28 04:20:14;;;;;;;;;;;;;;;22.60;74.47;100930.91;5064054;28;1368;-43
2021/06/28 04:22:41;;;;;;;;;;;;;;;22.67;74.25;100932.97;5063438;28;1930;-43
2021/06/28 04:25:10;;;;;;;;;;;;;;;22.72;74.46;100927.94;5066857;28;1249;-43
2021/06/28 04:27:36;;;;;;;;;;;;;;;22.68;74.35;100923.88;5073969;28;1345;-43
2021/06/28 04:30:05;;;;;;;;;;;;;;;22.86;73.94;100926.53;5074621;28;1059;-43
2021/06/28 04:32:32;;;;;;;;;;;;;;;22.82;74.19;100921.47;5074476;28;1023;-42
2021/06/28 04:34:58;;;;;;;;;;;;;;;22.85;74.21;100920.31;5074707;28;1080;-42
2021/06/28 04:37:25;;;;;;;;;;;;;;;22.97;74.45;100921.75;5074414;28;1046;-42
2021/06/28 04:39:52;;;;;;;;;;;;;;;23.11;74.18;100931.13;5074036;28;1127;-42
2021/06/28 04:42:18;;;;;;;;;;;;;;;23.14;74.66;100916.47;5022019;28;11348;-43
2021/06/28 04:44:45;;;;;;;;;;;;;;;23.16;74.92;100914.50;5013659;28;1100;-43
2021/06/28 04:47:13;;;;;;;;;;;;;;;23.19;74.62;100922.25;5014591;28;1073;-43
2021/06/28 04:49:39;;;;;;;;;;;;;;;23.20;74.74;100923.97;5012996;28;1315;-43
2021/06/28 04:52:06;;;;;;;;;;;;;;;23.24;74.74;100903.75;5013764;28;1047;-43
2021/06/28 04:54:32;;;;;;;;;;;;;;;23.26;74.41;100927.84;5013560;28;1084;-42
2021/06/28 04:56:59;;;;;;;;;;;;;;;23.21;74.70;100914.84;5014493;28;963;-42
2021/06/28 04:59:25;;;;;;;;;;;;;;;23.25;74.49;100921.59;5014262;28;999;-43
2021/06/28 05:01:52;;;;;;;;;;;;;;;23.27;74.52;100946.59;5014115;28;1401;-42
2021/06/28 05:04:20;;;;;;;;;;;;;;;23.26;74.65;100944.91;5014245;28;1991;-43
2021/06/28 05:06:48;;;;;;;;;;;;;;;23.25;74.92;100920.78;5014238;28;1003;-42
2021/06/28 05:09:15;;;;;;;;;;;;;;;23.29;74.76;100943.72;5014007;28;1190;-43
2021/06/28 05:11:42;;;;;;;;;;;;;;;23.24;74.75;100936.13;5013950;28;1060;-42
2021/06/28 05:14:08;;;;;;;;;;;;;;;23.25;74.94;100948.59;5014210;28;1003;-42
2021/06/28 05:16:35;;;;;;;;;;;;;;;23.28;75.04;100955.50;5014209;28;1098;-42
2021/06/28 05:19:01;;;;;;;;;;;;;;;23.28;74.75;100959.06;5013984;28;1076;-42
2021/06/28 05:21:29;;;;;;;;;;;;;;;23.29;75.20;100957.22;5014150;28;1018;-43
2021/06/28 05:23:56;;;;;;;;;;;;;;;23.30;75.11;100946.28;5014060;28;1984;-43
2021/06/28 05:26:22;;;;;;;;;;;;;;;23.30;75.33;100958.91;5013747;28;1132;-43
2021/06/28 05:28:49;;;;;;;;;;;;;;;23.28;75.15;100940.19;5013969;28;1073;-43
2021/06/28 05:31:15;;;;;;;;;;;;;;;23.28;74.97;100963.59;5013481;28;1051;-43
2021/06/28 05:33:41;;;;;;;;;;;;;;;23.27;75.26;100951.97;5013984;28;1035;-42
2021/06/28 05:36:08;;;;;;;;;;;;;;;23.29;75.31;100949.97;5013711;28;935;-42
2021/06/28 05:38:36;;;;;;;;;;;;;;;23.31;75.18;100966.84;5013967;28;1077;-43
2021/06/28 05:41:02;;;;;;;;;;;;;;;23.31;75.21;100958.75;5013756;28;958;-42
2021/06/28 05:43:29;;;;;;;;;;;;;;;23.36;75.12;100953.72;5014404;28;1902;-43
2021/06/28 05:45:55;;;;;;;;;;;;;;;23.36;75.40;100952.88;5013547;28;1124;-43
2021/06/28 05:48:22;;;;;;;;;;;;;;;23.33;75.28;100956.72;5013871;28;1085;-43
2021/06/28 05:50:49;;;;;;;;;;;;;;;23.34;75.46;100965.69;5013566;28;1111;-42
2021/06/28 05:53:16;;;;;;;;;;;;;;;23.37;75.37;100955.41;5013763;28;1077;-43
2021/06/28 05:55:44;;;;;;;;;;;;;;;23.38;75.34;100964.38;5013800;28;1002;-43
2021/06/28 05:58:12;;;;;;;;;;;;;;;23.41;75.25;100985.63;5013798;28;990;-43
2021/06/28 06:00:38;;;;;;;;;;;;;;;23.39;75.37;100976.84;5013464;28;1131;-42
2021/06/28 06:03:05;;;;;;;;;;;;;;;23.32;75.63;100967.72;5013303;28;1907;-42
2021/06/28 06:05:32;;;;;;;;;;;;;;;23.30;75.80;100973.25;5013396;28;1104;-43
2021/06/28 06:07:58;;;;;;;;;;;;;;;23.29;75.80;100984.19;5013709;28;999;-43
2021/06/28 06:10:24;;;;;;;;;;;;;;;23.28;76.06;100974.41;5013389;28;1092;-43
2021/06/28 06:12:53;;;;;;;;;;;;;;;23.29;75.89;100987.75;5013669;28;1011;-42
2021/06/28 06:15:19;;;;;;;;;;;;;;;23.32;75.87;101008.19;5013334;28;1114;-42
2021/06/28 06:17:46;;;;;;;;;;;;;;;23.33;76.12;100989.13;5013204;28;1202;-42
2021/06/28 06:20:13;;;;;;;;;;;;;;;23.33;75.50;100999.91;5013259;28;1333;-42
2021/06/28 06:22:40;;;;;;;;;;;;;;;23.37;75.68;100990.50;5013522;28;1058;-42
2021/06/28 06:25:07;;;;;;;;;;;;;;;23.36;75.68;100990.66;5013161;28;1906;-43
2021/06/28 06:27:34;;;;;;;;;;;;;;;23.35;75.78;100997.91;5013540;28;1089;-42
2021/06/28 06:30:02;;;;;;;;;;;;;;;23.38;76.04;100985.97;5013077;28;1277;-43
2021/06/28 06:32:28;;;;;;;;;;;;;;;23.41;75.76;100991.03;5013708;28;1934;-43
2021/06/28 06:34:55;;;;;;;;;;;;;;;23.41;75.84;100991.84;5013108;28;1344;-43
2021/06/28 06:37:21;;;;;;;;;;;;;;;23.45;75.74;100996.94;5013100;28;1025;-43
2021/06/28 06:39:48;;;;;;;;;;;;;;;23.45;76.01;100991.56;5013115;28;1080;-42
2021/06/28 06:42:14;;;;;;;;;;;;;;;23.47;75.85;100995.78;5013799;28;1050;-43
2021/06/28 06:44:41;;;;;;;;;;;;;;;23.49;75.61;101003.72;5016809;28;1906;-43
2021/06/28 06:47:09;;;;;;;;;;;;;;;23.48;75.75;100981.28;5016948;28;1073;-42
2021/06/28 06:49:35;;;;;;;;;;;;;;;23.48;75.62;100996.66;5016803;28;1043;-43
2021/06/28 06:52:02;;;;;;;;;;;;;;;23.43;75.68;100978.22;5016737;28;1073;-43
2021/06/28 06:54:28;;;;;;;;;;;;;;;23.49;75.69;100990.22;5016646;28;1077;-43
2021/06/28 06:56:54;;;;;;;;;;;;;;;23.49;75.92;100998.31;5016359;28;1100;-43
2021/06/28 06:59:21;;;;;;;;;;;;;;;23.50;75.69;100989.25;5016321;28;1096;-43
2021/06/28 07:01:47;;;;;;;;;;;;;;;23.48;75.61;101000.19;5016042;28;1472;-43
2021/06/28 07:04:15;;;;;;;;;;;;;;;23.51;75.68;101001.72;5016410;28;1906;-42
2021/06/28 07:06:42;;;;;;;;;;;;;;;23.48;75.68;100996.66;5016388;28;1089;-43
2021/06/28 07:09:08;;;;;;;;;;;;;;;23.49;75.48;101011.81;5016404;28;1107;-42
2021/06/28 07:11:35;;;;;;;;;;;;;;;23.49;75.81;100987.53;5016399;28;1031;-42
2021/06/28 07:14:01;;;;;;;;;;;;;;;23.52;75.82;100998.03;5016602;28;1055;-43
2021/06/28 07:16:31;;;;;;;;;;;;;;;23.49;75.90;101009.13;5016547;28;1073;-43
2021/06/28 07:18:57;;;;;;;;;;;;;;;23.52;75.55;100992.63;5016393;28;999;-42
2021/06/28 07:21:25;;;;;;;;;;;;;;;23.54;75.84;101002.25;5016205;28;1039;-43
2021/06/28 07:23:53;;;;;;;;;;;;;;;23.55;75.68;101011.19;5016206;28;1910;-43
2021/06/28 07:26:19;;;;;;;;;;;;;;;23.56;75.95;100999.41;5016206;28;1084;-43
2021/06/28 07:28:46;;;;;;;;;;;;;;;23.55;75.61;100994.97;5016115;28;999;-42
2021/06/28 07:31:12;;;;;;;;;;;;;;;23.53;75.64;101002.41;5015924;28;1111;-42
2021/06/28 07:33:41;;;;;;;;;;;;;;;23.54;75.65;101006.81;5016161;28;2072;-43
2021/06/28 07:36:07;;;;;;;;;;;;;;;23.51;75.87;100996.31;5015918;28;1012;-43
2021/06/28 07:38:36;;;;;;;;;;;;;;;23.49;75.94;100993.75;5015909;28;1101;-43
2021/06/28 07:41:02;;;;;;;;;;;;;;;23.51;75.83;101004.41;5015458;28;1111;-43
2021/06/28 07:43:29;;;;;;;;;;;;;;;23.52;75.77;101004.25;5015964;28;1906;-42
2021/06/28 07:45:55;;;;;;;;;;;;;;;23.53;75.79;101010.50;5015640;28;1019;-43
2021/06/28 07:48:22;;;;;;;;;;;;;;;23.54;75.97;100996.84;5015768;28;1090;-43
2021/06/28 07:50:49;;;;;;;;;;;;;;;23.55;75.82;100997.69;5015449;28;947;-43
2021/06/28 07:53:16;;;;;;;;;;;;;;;23.54;75.90;101004.09;5015509;28;1089;-42
2021/06/28 07:55:44;;;;;;;;;;;;;;;23.55;75.88;101005.78;5014824;28;1075;-43
2021/06/28 07:58:11;;;;;;;;;;;;;;;23.53;76.18;101005.94;5015840;28;1066;-43
2021/06/28 08:00:37;;;;;;;;;;;;;;;23.55;75.91;100997.69;5015169;28;1174;-43
2021/06/28 08:03:06;;;;;;;;;;;;;;;23.53;75.78;101003.22;5015154;28;1416;-43
2021/06/28 08:05:32;;;;;;;;;;;;;;;23.56;75.85;100999.41;5014913;28;1906;-43
2021/06/28 08:07:59;;;;;;;;;;;;;;;23.56;76.06;101002.09;5015304;28;1081;-43
2021/06/28 08:10:25;;;;;;;;;;;;;;;23.55;76.09;101012.03;5015534;28;1089;-43
2021/06/28 08:12:53;;;;;;;;;;;;;;;23.51;75.76;100996.31;5015227;28;983;-42
2021/06/28 08:15:20;;;;;;;;;;;;;;;23.54;75.92;101010.34;5015209;28;1063;-43
2021/06/28 08:17:47;;;;;;;;;;;;;;;23.56;75.83;101000.22;5015145;28;1082;-43
2021/06/28 08:20:14;;;;;;;;;;;;;;;23.58;75.83;101005.47;5014789;28;1131;-43
2021/06/28 08:22:41;;;;;;;;;;;;;;;23.62;75.76;100996.88;5015073;28;1096;-43
2021/06/28 08:25:08;;;;;;;;;;;;;;;23.62;75.62;101023.03;5014639;28;1969;-43
2021/06/28 08:27:35;;;;;;;;;;;;;;;23.59;75.72;101004.44;5014990;28;1008;-43
2021/06/28 08:30:03;;;;;;;;;;;;;;;23.59;75.94;100999.06;5014818;28;1095;-43
2021/06/28 08:32:30;;;;;;;;;;;;;;;23.60;75.74;101008.88;5014864;28;1099;-43
2021/06/28 08:34:59;;;;;;;;;;;;;;;23.59;75.67;100999.06;5014548;28;1084;-43
2021/06/28 08:37:25;;;;;;;;;;;;;;;23.58;76.08;101002.78;5015090;28;2175;-43
2021/06/28 08:39:52;;;;;;;;;;;;;;;23.59;75.99;100989.09;5014457;28;1006;-43
2021/06/28 08:42:18;;;;;;;;;;;;;;;23.60;75.86;100988.09;5014302;28;1055;-42
2021/06/28 08:44:46;;;;;;;;;;;;;;;23.59;76.09;100990.97;5014599;28;1906;-43
2021/06/28 08:47:14;;;;;;;;;;;;;;;23.60;76.20;100995.38;5014354;28;1147;-43
2021/06/28 08:49:41;;;;;;;;;;;;;;;23.57;76.21;100983.00;5015138;28;2044;-43
2021/06/28 08:52:08;;;;;;;;;;;;;;;23.57;76.33;100984.88;5014574;28;1063;-43
2021/06/28 08:54:35;;;;;;;;;;;;;;;23.59;76.13;100994.50;5014300;28;1171;-43
2021/06/28 08:57:01;;;;;;;;;;;;;;;23.55;76.20;100973.38;5014411;28;1103;-43
2021/06/28 08:59:28;;;;;;;;;;;;;;;23.57;76.26;100988.41;5014467;28;1016;-42
2021/06/28 09:01:55;;;;;;;;;;;;;;;23.60;76.14;101000.75;5013917;28;1420;-43
2021/06/28 09:04:24;;;;;;;;;;;;;;;23.57;76.26;100971.38;5013941;28;1993;-43
2021/06/28 09:06:50;;;;;;;;;;;;;;;23.61;75.89;100975.44;5014219;28;1024;-42
2021/06/28 09:09:17;;;;;;;;;;;;;;;23.60;75.98;100984.56;5014014;28;1218;-43
2021/06/28 09:11:45;;;;;;;;;;;;;;;23.60;75.90;100990.81;5014275;28;1190;-42
2021/06/28 09:14:12;;;;;;;;;;;;;;;23.57;76.16;100982.16;5014172;28;1934;-43
2021/06/28 09:16:40;;;;;;;;;;;;;;;23.59;76.28;100982.84;5014197;28;1011;-42
2021/06/28 09:19:07;;;;;;;;;;;;;;;23.58;76.27;100964.97;5014132;28;1031;-43
2021/06/28 09:21:40;;;;;;;;;;;;;;;23.58;76.14;100983.88;5013831;28;1186;-42
2021/06/28 09:24:09;;;;;;;;;;;;;;;23.57;76.10;100979.47;5014110;28;1987;-43
2021/06/28 09:26:36;;;;;;;;;;;;;;;23.58;76.14;100973.91;5013775;28;1068;-42
2021/06/28 09:29:04;;;;;;;;;;;;;;;23.58;76.25;100970.38;5014068;28;998;-43
2021/06/28 09:31:36;;;;;;;;;;;;;;;23.58;76.16;100967.69;5013958;28;999;-43
2021/06/28 09:34:06;;;;;;;;;;;;;;;23.59;76.09;100962.09;5014074;28;1085;-43
2021/06/28 09:36:42;;;;;;;;;;;;;;;23.60;76.00;100969.22;5013993;28;1182;-43
2021/06/28 09:39:17;;;;;;;;;;;;;;;23.57;76.25;100961.41;5013985;28;1043;-43
2021/06/28 09:41:43;;;;;;;;;;;;;;;23.60;76.32;100971.91;5013783;28;1066;-43
2021/06/28 09:44:10;;;;;;;;;;;;;;;23.61;76.32;100962.78;5014662;28;1979;-42
2021/06/28 09:46:37;;;;;;;;;;;;;;;23.60;76.39;100976.47;5013479;28;1099;-42
2021/06/28 09:49:05;;;;;;;;;;;;;;;23.55;76.20;100971.53;5013854;28;1070;-43
2021/06/28 09:51:32;;;;;;;;;;;;;;;23.56;76.29;100956.19;5013853;28;1078;-43
2021/06/28 09:54:15;;;;;;;;;;;;;;;23.52;76.41;100957.53;5013764;28;1055;-43
2021/06/28 09:56:44;;;;;;;;;;;;;;;23.56;76.05;100967.00;5013519;28;1084;-43
2021/06/28 09:59:20;;;;;;;;;;;;;;;23.56;76.48;100972.41;5013810;28;1054;-42
2021/06/28 10:01:47;;;;;;;;;;;;;;;23.51;76.69;100963.91;5013204;28;1919;-43
2021/06/28 10:04:29;;;;;;;;;;;;;;;23.55;76.51;100970.69;5013293;28;1988;-42
2021/06/28 10:06:56;;;;;;;;;;;;;;;23.55;76.25;100973.38;5013481;28;1087;-42
2021/06/28 10:09:26;;;;;;;;;;;;;;;23.53;76.39;100956.50;5013622;28;1090;-43
2021/06/28 10:11:56;;;;;;;;;;;;;;;23.54;76.46;100959.06;5013677;28;1059;-42
2021/06/28 10:14:23;;;;;;;;;;;;;;;23.52;76.35;100960.22;5013368;28;1072;-43
2021/06/28 10:16:55;;;;;;;;;;;;;;;23.54;76.38;100963.63;5013344;28;1171;-42
2021/06/28 10:19:22;;;;;;;;;;;;;;;23.55;76.52;100966.13;5016824;28;1137;-42
2021/06/28 10:21:48;;;;;;;;;;;;;;;23.54;76.52;100948.25;5017616;28;1062;-43
2021/06/28 10:24:15;;;;;;;;;;;;;;;23.51;76.58;100947.72;5017281;28;1911;-43
2021/06/28 10:26:42;;;;;;;;;;;;;;;23.55;76.78;100947.22;5017245;28;992;-42
2021/06/28 10:29:09;;;;;;;;;;;;;;;23.54;76.36;100942.03;5017208;28;1077;-43
2021/06/28 10:31:36;;;;;;;;;;;;;;;23.54;76.55;100931.22;5017003;28;1084;-43
2021/06/28 10:34:02;;;;;;;;;;;;;;;23.55;76.32;100943.69;5016797;28;1068;-43
2021/06/28 10:36:33;;;;;;;;;;;;;;;23.55;76.44;100927.50;5017139;28;1086;-43
2021/06/28 10:38:59;;;;;;;;;;;;;;;23.55;76.78;100938.28;5017121;28;1070;-43
2021/06/28 10:41:37;;;;;;;;;;;;;;;23.56;76.60;100934.59;5016903;28;992;-43
2021/06/28 10:44:03;;;;;;;;;;;;;;;23.54;76.52;100929.38;5016916;28;1101;-43
2021/06/28 10:46:32;;;;;;;;;;;;;;;23.52;76.51;100917.88;5016864;28;1886;-42
2021/06/28 10:48:59;;;;;;;;;;;;;;;23.55;76.79;100919.41;5016544;28;1155;-43
2021/06/28 10:51:37;;;;;;;;;;;;;;;23.54;76.75;100917.72;5016777;28;1078;-43
2021/06/28 10:54:04;;;;;;;;;;;;;;;23.56;76.63;100927.34;5016661;28;1035;-43
2021/06/28 10:56:41;;;;;;;;;;;;;;;23.58;76.43;100921.78;5016717;28;1008;-42
2021/06/28 10:59:08;;;;;;;;;;;;;;;23.59;76.53;100920.75;5016373;28;1115;-43
2021/06/28 11:01:36;;;;;;;;;;;;;;;23.59;76.38;100915.38;5016296;28;1404;-43
2021/06/28 11:04:07;;;;;;;;;;;;;;;23.59;76.62;100913.50;5016541;28;1008;-42
2021/06/28 11:06:34;;;;;;;;;;;;;;;23.58;76.45;100913.69;5016063;28;1906;-43
2021/06/28 11:09:04;;;;;;;;;;;;;;;23.57;76.85;100917.38;5016477;28;1081;-43
2021/06/28 11:11:50;;;;;;;;;;;;;;;23.52;76.50;100907.09;5016428;28;1004;-43
2021/06/28 11:14:38;;;;;;;;;;;;;;;23.56;76.64;100923.81;5016091;28;1173;-43
2021/06/28 11:17:07;;;;;;;;;;;;;;;23.51;76.98;100915.34;5016340;28;1048;-43
2021/06/28 11:19:54;;;;;;;;;;;;;;;23.51;77.07;100918.88;5016365;28;1065;-42
2021/06/28 11:22:34;;;;;;;;;;;;;;;23.48;76.76;100910.28;5016313;28;1085;-42
2021/06/28 11:25:01;;;;;;;;;;;;;;;23.46;76.69;100914.97;5015819;28;1975;-42
2021/06/28 11:27:28;;;;;;;;;;;;;;;23.46;76.81;100923.06;5015840;28;1144;-42
2021/06/28 11:29:55;;;;;;;;;;;;;;;23.47;77.22;100927.47;5015078;28;995;-43
2021/06/28 11:32:24;;;;;;;;;;;;;;;23.46;77.18;100929.31;5016072;28;1070;-43
2021/06/28 11:34:50;;;;;;;;;;;;;;;23.45;77.21;100929.47;5016266;28;1092;-43
2021/06/28 11:37:17;;;;;;;;;;;;;;;23.46;77.05;100944.66;5015679;28;1178;-42
2021/06/28 11:39:54;;;;;;;;;;;;;;;23.47;77.22;100971.50;5015926;28;1062;-43
2021/06/28 11:42:24;;;;;;;;;;;;;;;23.45;77.23;100978.06;5015363;28;943;-43
2021/06/28 11:45:00;;;;;;;;;;;;;;;23.43;77.03;100979.06;5015742;28;1906;-43
2021/06/28 11:47:45;;;;;;;;;;;;;;;23.44;77.26;100985.31;5015701;28;1069;-43
2021/06/28 11:50:29;;;;;;;;;;;;;;;23.43;77.08;100962.84;5015713;28;1080;-42
2021/06/28 11:52:58;;;;;;;;;;;;;;;23.43;77.22;100949.38;5015350;28;1060;-42
2021/06/28 11:55:24;;;;;;;;;;;;;;;23.46;77.25;100933.84;5015563;28;1048;-43
2021/06/28 11:57:51;;;;;;;;;;;;;;;23.48;77.15;100937.28;5015312;28;1346;-43
2021/06/28 12:00:18;;;;;;;;;;;;;;;23.45;76.84;100948.38;5015220;28;1084;-43
2021/06/28 12:02:45;;;;;;;;;;;;;;;23.46;77.11;100948.22;5015225;28;1425;-43
2021/06/28 12:05:11;;;;;;;;;;;;;;;23.46;77.13;100936.56;5015275;28;1980;-43
2021/06/28 12:07:40;;;;;;;;;;;;;;;23.50;77.14;100951.44;5015016;28;1166;-43
2021/06/28 12:10:07;;;;;;;;;;;;;;;23.46;77.33;100931.16;5015484;28;2038;-42
2021/06/28 12:12:33;;;;;;;;;;;;;;;23.44;77.60;100950.22;5014963;28;1116;-42
2021/06/28 12:15:00;;;;;;;;;;;;;;;23.45;76.77;100956.47;5015259;28;1047;-42
2021/06/28 12:17:28;;;;;;;;;;;;;;;23.45;77.18;100934.88;5015192;28;1105;-43
2021/06/28 12:19:58;;;;;;;;;;;;;;;23.49;77.03;100955.13;5014760;28;1072;-42
2021/06/28 12:22:25;;;;;;;;;;;;;;;23.47;76.83;100957.16;5014803;28;1100;-43
2021/06/28 12:24:57;;;;;;;;;;;;;;;23.47;76.85;100957.16;5014678;28;1975;-43
2021/06/28 12:27:25;;;;;;;;;;;;;;;23.46;76.82;100950.03;5014923;28;1053;-43
2021/06/28 12:29:52;;;;;;;;;;;;;;;23.48;76.86;100942.66;5014637;28;1103;-43
2021/06/28 12:32:21;;;;;;;;;;;;;;;23.46;77.18;100934.72;5014645;28;1111;-42
2021/06/28 12:34:49;;;;;;;;;;;;;;;23.51;76.79;100942.31;5014889;28;1066;-43
2021/06/28 12:37:21;;;;;;;;;;;;;;;23.50;77.04;100935.25;5014842;28;1112;-42
2021/06/28 12:39:48;;;;;;;;;;;;;;;23.51;76.94;100928.84;5014782;28;1075;-43
2021/06/28 12:42:17;;;;;;;;;;;;;;;23.51;76.93;100929.66;5014337;28;1071;-43
2021/06/28 12:44:43;;;;;;;;;;;;;;;23.50;77.00;100909.09;5014849;28;994;-42
2021/06/28 12:47:11;;;;;;;;;;;;;;;23.47;77.25;100919.38;5014856;28;1902;-43
2021/06/28 12:49:37;;;;;;;;;;;;;;;23.46;77.23;100918.53;5014615;28;1077;-43
2021/06/28 12:52:23;;;;;;;;;;;;;;;23.46;77.01;100910.44;5014941;28;1101;-42